This is the latest recevied weather packets stored in our database for station/object ENRA. If no packets are shown the sender has not sent any weather packets the latest 10 day(s).
| Time | Temp. | Humidity | Pressure | Rain* | Wind** | Luminosity | Snow |
|---|---|---|---|---|---|---|---|
| 1778263387 | 10° C | 42% | 1020 hPa | - | - | - | - |
| 1778261587 | 10.56° C | 37% | 1020 hPa | - | - | - | - |
| 1778256186 | 10.56° C | 34% | 1021 hPa | - | - | - | - |
| 1778254387 | 10.56° C | 34% | 1021 hPa | - | - | - | - |
| 1778252587 | 10.56° C | 37% | 1021 hPa | - | - | - | - |
| 1778250787 | 10.56° C | 34% | 1021 hPa | - | - | - | - |
| 1778248987 | 10.56° C | 32% | 1021 hPa | - | - | - | - |
| 1778247187 | 10.56° C | 29% | 1022 hPa | - | - | - | - |
| 1778245387 | 10.56° C | 34% | 1022 hPa | - | - | - | - |
| 1778243587 | 10° C | 37% | 1022 hPa | - | - | - | - |
| 1778241786 | 10° C | 34% | 1022 hPa | - | - | - | - |
| 1778239987 | 8.89° C | 36% | 1023 hPa | - | - | - | - |
| 1778238185 | 8.89° C | 36% | 1023 hPa | - | - | - | - |
| 1778236387 | 8.89° C | 39% | 1023 hPa | - | - | - | - |
| 1778234587 | 7.78° C | 42% | 1023 hPa | - | - | - | - |
| 1778232787 | 7.78° C | 49% | 1023 hPa | - | - | - | - |
| 1778230987 | 8.89° C | 49% | 1023 hPa | - | - | - | - |
| 1778229187 | 5.56° C | 60% | 1023 hPa | - | - | - | - |
| 1778225587 | 6.67° C | 65% | 1023 hPa | - | - | - | - |
| 1778223786 | 5° C | 75% | 1023 hPa | - | - | - | - |
| 1778221986 | 2.78° C | 86% | 1023 hPa | - | - | - | - |
| 1778220186 | 1.67° C | 93% | 1023 hPa | - | - | - | - |
| 1778218387 | 1.67° C | 93% | 1023 hPa | - | - | - | - |
| 1778216587 | 0.56° C | 10% | - | - | - | - | - |
| 1778214786 | 0.56° C | 10% | - | - | - | - | - |
* Rain since midnight (hover to see other rain measurements)
** Current wind speed in m/s (hover to see current wind gust speed)